Time;durP1;ratioP1;P1;durP2;ratioP2;P2;SDS_P1;SDS_P2;PMS_P1;PMS_P2;Temp;Humidity;BMP_temperature;BMP_pressure;BME280_temperature;BME280_humidity;BME280_pressure;Samples;Min_cycle;Max_cycle;Signal;HPM_P1;HPM_P2
2021/05/01 00:02:16;;;;;;;31.25;19.30;;;;;;;8.35;55.01;98096.88;5054140;28;20109;-80
2021/05/01 00:04:42;;;;;;;39.90;23.25;;;;;;;8.29;55.14;98098.88;5054469;28;20040;-80
2021/05/01 00:07:07;;;;;;;39.78;22.20;;;;;;;8.27;54.93;98098.34;5054166;28;20032;-80
2021/05/01 00:09:33;;;;;;;36.55;21.30;;;;;;;8.29;55.12;98098.03;5054192;28;20029;-79
2021/05/01 00:11:58;;;;;;;37.13;22.42;;;;;;;8.29;55.13;98100.78;5054177;28;20182;-80
2021/05/01 00:14:27;;;;;;;50.72;27.98;;;;;;;8.28;55.27;98094.50;5054022;28;20370;-79
2021/05/01 00:16:55;;;;;;;58.63;30.08;;;;;;;8.22;55.05;98095.66;5053693;28;20415;-80
2021/05/01 00:19:21;;;;;;;66.68;34.08;;;;;;;8.19;55.07;98088.84;5054022;28;20039;-80
2021/05/01 00:21:46;;;;;;;60.80;30.20;;;;;;;8.18;55.25;98098.16;5053474;28;20037;-80
2021/05/01 00:24:12;;;;;;;46.47;24.77;;;;;;;8.18;55.20;98102.81;5053714;28;20017;-80
2021/05/01 00:26:38;;;;;;;65.78;31.88;;;;;;;8.19;55.46;98107.19;5053466;28;20028;-81
2021/05/01 00:29:03;;;;;;;44.05;24.45;;;;;;;8.25;55.69;98105.19;5052124;28;20083;-80
2021/05/01 00:31:29;;;;;;;40.67;23.35;;;;;;;8.29;55.61;98106.25;5053266;28;20086;-79
2021/05/01 00:33:55;;;;;;;38.92;21.40;;;;;;;8.34;55.59;98111.66;5053211;28;20028;-80
2021/05/01 00:36:21;;;;;;;41.33;23.08;;;;;;;8.38;55.60;98111.88;5053329;28;20377;-80
2021/05/01 00:38:46;;;;;;;39.50;21.75;;;;;;;8.41;55.67;98116.75;5052841;28;20358;-79
2021/05/01 00:41:12;;;;;;;34.20;20.65;;;;;;;8.41;55.51;98109.41;5050995;28;20029;-78
2021/05/01 00:43:41;;;;;;;36.95;21.08;;;;;;;8.41;55.63;98114.03;5018251;28;20034;-78
2021/05/01 00:46:07;;;;;;;33.03;20.60;;;;;;;8.40;55.66;98124.16;5021066;28;20029;-77
2021/05/01 00:48:33;;;;;;;35.50;21.17;;;;;;;8.38;55.74;98111.88;5024055;28;20032;-78
2021/05/01 00:51:00;;;;;;;36.42;20.73;;;;;;;8.38;55.49;98106.41;5025937;28;20021;-78
2021/05/01 00:53:26;;;;;;;32.85;19.08;;;;;;;8.34;56.01;98107.03;5025087;28;20021;-79
2021/05/01 00:55:52;;;;;;;31.10;18.27;;;;;;;8.31;56.21;98102.13;5024988;28;20021;-80
2021/05/01 00:58:19;;;;;;;32.25;19.02;;;;;;;8.30;56.36;98099.69;5027256;28;20032;-79
2021/05/01 01:03:10;;;;;;;37.05;21.48;;;;;;;8.25;56.09;98095.09;5022546;28;20094;-80
2021/05/01 01:05:35;;;;;;;31.08;19.63;;;;;;;8.22;56.09;98095.66;5017239;28;20112;-80
2021/05/01 01:08:01;;;;;;;31.88;19.50;;;;;;;8.17;56.39;98093.00;5018195;28;20017;-80
2021/05/01 01:10:26;;;;;;;35.03;19.40;;;;;;;8.12;56.62;98093.88;5024146;28;20423;-79
2021/05/01 01:12:52;;;;;;;36.47;19.17;;;;;;;8.08;56.58;98094.72;5024326;28;20029;-80
2021/05/01 01:15:26;;;;;;;36.28;20.13;;;;;;;8.01;56.81;98095.88;5026809;28;20025;-81
2021/05/01 01:17:52;;;;;;;31.85;18.20;;;;;;;7.96;56.98;98101.38;5025859;28;20025;-81
2021/05/01 01:20:18;;;;;;;33.88;19.35;;;;;;;7.88;57.36;98093.81;5025425;28;20111;-81
2021/05/01 01:22:44;;;;;;;35.78;20.40;;;;;;;7.85;57.54;98097.94;5022403;28;20111;-79
2021/05/01 01:25:09;;;;;;;40.75;21.25;;;;;;;7.80;57.26;98095.25;5018260;28;20124;-80
2021/05/01 01:27:35;;;;;;;35.30;19.95;;;;;;;7.75;57.91;98106.19;5016155;28;20026;-80
2021/05/01 01:30:03;;;;;;;33.97;19.58;;;;;;;7.72;57.95;98091.22;5018751;28;20051;-81
2021/05/01 01:32:29;;;;;;;33.97;19.17;;;;;;;7.67;57.17;98091.25;5025636;28;20033;-81
2021/05/01 01:34:54;;;;;;;32.70;19.75;;;;;;;7.66;58.19;98092.38;5026154;28;20716;-80
2021/05/01 01:37:20;;;;;;;31.05;17.17;;;;;;;7.58;58.52;98099.25;5024163;28;20069;-79
2021/05/01 01:39:45;;;;;;;32.33;18.98;;;;;;;7.52;58.02;98105.84;5024434;28;20090;-79
2021/05/01 01:42:10;;;;;;;30.30;18.13;;;;;;;7.51;58.49;98098.78;5025899;28;20029;-79
2021/05/01 01:44:36;;;;;;;32.28;19.25;;;;;;;7.47;58.45;98099.63;5023846;28;20029;-79
2021/05/01 01:47:01;;;;;;;31.95;18.98;;;;;;;7.44;58.79;98104.56;5016840;28;20028;-81
2021/05/01 01:49:27;;;;;;;33.97;19.00;;;;;;;7.42;58.79;98100.47;5018504;28;20389;-81
2021/05/01 01:51:52;;;;;;;29.17;17.77;;;;;;;7.40;59.21;98099.94;5025242;28;20017;-82
2021/05/01 01:54:17;;;;;;;36.25;19.65;;;;;;;7.37;58.67;98089.59;5031452;28;20116;-84
2021/05/01 01:56:43;;;;;;;31.92;19.13;;;;;;;7.36;59.02;98091.50;5028064;28;20098;-84
2021/05/01 01:59:08;;;;;;;30.00;18.83;;;;;;;7.39;58.87;98090.13;5027944;28;20150;-85
2021/05/01 02:01:34;;;;;;;29.20;17.25;;;;;;;7.41;59.72;98091.47;5027851;28;20021;-81
2021/05/01 02:04:00;;;;;;;33.30;19.67;;;;;;;7.45;59.15;98089.81;5030187;28;20060;-84
2021/05/01 02:06:25;;;;;;;33.20;18.83;;;;;;;7.49;59.38;98090.06;5028011;28;20060;-82
2021/05/01 02:08:51;;;;;;;30.38;19.77;;;;;;;7.49;59.70;98084.59;5019015;28;20091;-85
2021/05/01 02:11:20;;;;;;;28.85;17.83;;;;;;;7.50;59.57;98071.78;5019700;28;20040;-84
2021/05/01 02:13:45;;;;;;;27.25;16.75;;;;;;;7.53;59.76;98082.13;5030058;28;20023;-82
2021/05/01 02:16:11;;;;;;;30.85;18.85;;;;;;;7.51;59.88;98076.94;5028040;28;20046;-83
2021/05/01 02:18:37;;;;;;;34.13;19.98;;;;;;;7.54;59.57;98081.81;5030354;28;20036;-82
2021/05/01 02:21:03;;;;;;;33.08;20.00;;;;;;;7.59;60.29;98084.50;5030523;28;20021;-82
2021/05/01 02:23:29;;;;;;;35.85;20.13;;;;;;;7.60;60.00;98085.31;5029210;28;20101;-81
2021/05/01 02:25:54;;;;;;;33.92;19.73;;;;;;;7.63;60.19;98089.41;5027466;28;20960;-82
2021/05/01 02:28:19;;;;;;;34.33;18.23;;;;;;;7.59;59.82;98086.41;5020681;28;20029;-81
2021/05/01 02:30:46;;;;;;;34.20;19.48;;;;;;;7.62;59.73;98079.59;5023016;28;20024;-82
2021/05/01 02:33:11;;;;;;;34.90;19.70;;;;;;;7.64;59.81;98091.03;5036291;28;20033;-82
2021/05/01 02:35:38;;;;;;;27.70;17.33;;;;;;;7.67;59.70;98083.06;5027645;28;20028;-83
2021/05/01 02:38:04;;;;;;;29.17;16.55;;;;;;;7.69;60.27;98094.53;5025965;28;20034;-82
2021/05/01 02:40:31;;;;;;;30.45;17.33;;;;;;;7.70;59.75;98092.63;5029632;28;20465;-83
2021/05/01 02:43:05;;;;;;;31.33;18.55;;;;;;;7.72;59.98;98084.97;5028539;28;20463;-82
2021/05/01 02:45:31;;;;;;;30.00;16.90;;;;;;;7.74;59.77;98089.03;5027878;28;20064;-82
2021/05/01 02:47:56;;;;;;;32.92;18.23;;;;;;;7.78;59.83;98085.72;5025258;28;20112;-82
2021/05/01 02:50:22;;;;;;;28.48;17.08;;;;;;;7.80;59.81;98075.34;5017804;28;20072;-83
2021/05/01 02:52:47;;;;;;;30.98;18.70;;;;;;;7.84;59.85;98070.94;5018905;28;20525;-84
2021/05/01 02:55:14;;;;;;;29.05;17.60;;;;;;;7.89;59.93;98070.88;5027230;28;20026;-83
2021/05/01 02:57:39;;;;;;;28.20;17.13;;;;;;;7.93;59.70;98068.38;5028296;28;20082;-85
2021/05/01 03:00:11;;;;;;;31.55;19.40;;;;;;;7.96;59.74;98065.06;5028623;28;20416;-83
2021/05/01 03:02:37;;;;;;;30.65;18.33;;;;;;;8.00;59.90;98068.84;5026708;28;20040;-84
2021/05/01 03:05:03;;;;;;;32.13;18.23;;;;;;;8.03;59.86;98071.81;5027179;28;20029;-83
2021/05/01 03:07:28;;;;;;;30.70;18.42;;;;;;;8.03;59.60;98066.34;5026760;28;20025;-83
2021/05/01 03:09:53;;;;;;;31.67;18.58;;;;;;;8.04;59.66;98067.19;5022445;28;20089;-83
2021/05/01 03:12:19;;;;;;;33.00;18.40;;;;;;;8.02;59.63;98053.78;5018246;28;20453;-83
2021/05/01 03:14:45;;;;;;;33.72;19.15;;;;;;;8.07;59.91;98060.31;5019946;28;20022;-82
2021/05/01 03:17:11;;;;;;;32.75;19.15;;;;;;;8.06;59.79;98056.78;5028427;28;20056;-82
2021/05/01 03:19:37;;;;;;;31.25;19.48;;;;;;;8.02;59.61;98053.78;5026934;28;20496;-83
2021/05/01 03:22:02;;;;;;;33.08;19.73;;;;;;;8.02;59.61;98064.72;5029805;28;20025;-83
2021/05/01 03:24:31;;;;;;;31.02;19.05;;;;;;;8.00;59.74;98053.28;5026690;28;20022;-83
2021/05/01 03:26:57;;;;;;;32.00;19.17;;;;;;;7.99;59.96;98051.66;5027396;28;20025;-83
2021/05/01 03:29:22;;;;;;;32.90;19.38;;;;;;;8.01;59.49;98057.63;5026304;28;20034;-83
2021/05/01 03:31:48;;;;;;;36.30;20.27;;;;;;;8.02;59.86;98062.00;5017946;28;20040;-82
2021/05/01 03:34:14;;;;;;;42.03;22.83;;;;;;;8.05;59.93;98047.75;5020341;28;20029;-82
2021/05/01 03:36:39;;;;;;;38.50;22.73;;;;;;;8.09;59.92;98039.81;5020854;28;20047;-83
2021/05/01 03:39:05;;;;;;;35.83;21.23;;;;;;;8.11;59.78;98037.59;5027762;28;20033;-83
2021/05/01 03:41:30;;;;;;;35.60;21.15;;;;;;;8.09;59.57;98039.00;5025659;28;20033;-83
2021/05/01 03:43:56;;;;;;;37.05;21.58;;;;;;;8.10;59.70;98021.50;5033003;28;20112;-83
2021/05/01 03:46:21;;;;;;;39.40;22.00;;;;;;;8.11;59.61;98029.41;5026031;28;20037;-83
2021/05/01 03:48:46;;;;;;;38.10;22.00;;;;;;;8.10;59.57;98019.59;5026785;28;20033;-83
2021/05/01 03:51:12;;;;;;;37.90;22.95;;;;;;;8.08;58.99;98012.78;5025825;28;20035;-84
2021/05/01 03:53:37;;;;;;;39.78;22.10;;;;;;;8.07;59.12;98006.53;5017185;28;20114;-84
2021/05/01 03:56:03;;;;;;;42.55;23.13;;;;;;;8.06;59.57;98004.88;5017912;28;20698;-84
2021/05/01 03:58:28;;;;;;;33.67;19.38;;;;;;;8.07;59.78;98019.34;5024524;28;20033;-83
2021/05/01 04:00:53;;;;;;;36.97;20.55;;;;;;;8.02;59.36;98010.09;5027213;28;20080;-83
2021/05/01 04:03:19;;;;;;;33.78;20.35;;;;;;;8.02;59.61;98021.03;5025254;28;20073;-83
2021/05/01 04:05:44;;;;;;;35.80;21.05;;;;;;;8.01;59.62;98024.06;5027039;28;20041;-84
2021/05/01 04:08:10;;;;;;;36.60;20.77;;;;;;;8.03;59.52;98022.66;5025752;28;20567;-83
2021/05/01 04:10:35;;;;;;;37.75;21.27;;;;;;;8.04;59.56;98018.81;5026464;28;20903;-84
2021/05/01 04:13:01;;;;;;;34.95;20.48;;;;;;;8.11;58.82;98023.13;5021241;28;20029;-83
2021/05/01 04:15:27;;;;;;;37.08;20.40;;;;;;;8.14;59.20;98009.72;5019606;28;20022;-83
2021/05/01 04:17:53;;;;;;;34.75;20.38;;;;;;;8.13;59.35;98010.81;5019846;28;20725;-83
2021/05/01 04:20:19;;;;;;;34.47;19.70;;;;;;;8.17;59.49;98021.97;5027618;28;20157;-84
2021/05/01 04:22:45;;;;;;;36.67;20.52;;;;;;;8.27;59.42;98029.22;5025080;28;20092;-83
2021/05/01 04:25:12;;;;;;;35.00;20.58;;;;;;;8.32;59.28;98049.13;5025869;28;20128;-84
2021/05/01 04:27:37;;;;;;;35.85;19.92;;;;;;;8.38;59.03;98051.75;5025373;28;20470;-83
2021/05/01 04:30:04;;;;;;;36.72;20.10;;;;;;;8.44;59.03;98045.97;5025389;28;20041;-84
2021/05/01 04:32:30;;;;;;;34.15;19.52;;;;;;;8.51;58.91;98053.81;5031856;28;20032;-83
2021/05/01 04:34:55;;;;;;;33.15;18.67;;;;;;;8.55;58.82;98059.53;5017566;28;20021;-83
2021/05/01 04:37:21;;;;;;;36.88;20.15;;;;;;;8.56;58.25;98048.28;5017188;28;20063;-83
2021/05/01 04:39:46;;;;;;;32.80;19.05;;;;;;;8.60;58.61;98043.88;5021319;28;20053;-83
2021/05/01 04:42:12;;;;;;;33.03;19.60;;;;;;;8.63;58.42;98056.97;5043946;28;20071;-83
2021/05/01 04:44:38;;;;;;;32.90;18.30;;;;;;;8.67;58.25;98059.09;5044797;28;20473;-84
2021/05/01 04:47:03;;;;;;;35.47;19.55;;;;;;;8.71;58.30;98060.16;5044451;28;20046;-84
2021/05/01 04:49:29;;;;;;;31.35;17.27;;;;;;;8.71;58.32;98057.41;5035398;28;20064;-84
2021/05/01 04:51:54;;;;;;;34.20;19.90;;;;;;;8.69;58.17;98049.50;5041944;28;20112;-83
2021/05/01 04:54:19;;;;;;;32.60;18.25;;;;;;;8.69;58.33;98035.03;5036724;28;20021;-83
2021/05/01 04:56:45;;;;;;;31.40;18.60;;;;;;;8.74;58.20;98035.75;5028496;28;20017;-83
2021/05/01 04:59:10;;;;;;;31.13;17.80;;;;;;;8.77;58.32;98035.16;5033475;28;20071;-83
2021/05/01 05:01:36;;;;;;;31.00;17.42;;;;;;;8.80;58.62;98033.75;5038304;28;20021;-83
2021/05/01 05:04:02;;;;;;;29.95;17.25;;;;;;;8.85;58.18;98028.22;5039448;28;20079;-83
2021/05/01 05:06:27;;;;;;;28.95;17.60;;;;;;;8.92;58.16;98017.72;5044165;28;20017;-83
2021/05/01 05:08:53;;;;;;;29.17;17.50;;;;;;;9.00;57.94;98010.75;5044465;28;20086;-84
2021/05/01 05:11:18;;;;;;;31.15;18.45;;;;;;;9.03;58.26;98007.44;5037076;28;20032;-84
2021/05/01 05:13:44;;;;;;;31.35;18.92;;;;;;;9.04;58.45;98022.75;5034120;28;20499;-84
2021/05/01 05:16:09;;;;;;;31.40;17.05;;;;;;;9.07;58.70;98030.34;5019299;28;20057;-84
2021/05/01 05:18:34;;;;;;;32.50;18.85;;;;;;;9.10;58.38;98023.50;5033191;28;20083;-84
2021/05/01 05:21:00;;;;;;;29.52;16.98;;;;;;;9.12;58.32;98034.94;5021687;28;20034;-85
2021/05/01 05:23:26;;;;;;;30.63;17.40;;;;;;;9.09;58.75;98050.03;5037105;28;20036;-86
2021/05/01 05:25:52;;;;;;;30.75;17.73;;;;;;;9.16;58.41;98051.56;5027796;28;20037;-85
2021/05/01 05:28:17;;;;;;;28.98;17.75;;;;;;;9.15;58.67;98050.78;5030599;28;20509;-85
2021/05/01 05:30:42;;;;;;;29.88;17.85;;;;;;;9.15;58.85;98045.31;5037812;28;20035;-85
2021/05/01 05:33:08;;;;;;;31.45;18.80;;;;;;;9.16;58.29;98049.66;5038575;28;20061;-85
2021/05/01 05:35:33;;;;;;;32.90;18.75;;;;;;;9.12;58.99;98043.16;5034367;28;20079;-84
2021/05/01 05:38:00;;;;;;;32.83;18.70;;;;;;;9.06;58.44;98047.88;5031054;28;20032;-84
2021/05/01 05:40:26;;;;;;;33.13;22.55;;;;;;;9.00;58.96;98051.78;5020834;28;20807;-84
2021/05/01 05:42:51;;;;;;;32.50;18.83;;;;;;;8.99;59.21;98044.69;5028843;28;20029;-84
2021/05/01 05:45:25;;;;;;;33.08;20.65;;;;;;;8.99;59.31;98054.84;5034286;28;20033;-84
2021/05/01 05:47:51;;;;;;;34.80;19.85;;;;;;;8.97;59.52;98054.31;5027665;28;20033;-85
2021/05/01 05:50:16;;;;;;;32.65;19.08;;;;;;;8.98;59.26;98066.88;5033805;28;20037;-85
2021/05/01 05:52:42;;;;;;;101.65;40.30;;;;;;;9.06;59.37;98075.22;5028438;28;20030;-86
2021/05/01 05:55:09;;;;;;;213.48;69.88;;;;;;;9.10;59.79;98072.75;5036480;28;20068;-86
2021/05/01 05:57:34;;;;;;;67.15;30.00;;;;;;;9.14;59.64;98076.50;5029483;28;20224;-87
2021/05/01 05:59:59;;;;;;;83.75;34.17;;;;;;;9.21;59.87;98059.72;5033174;28;20030;-87
2021/05/01 06:02:26;;;;;;;36.33;20.73;;;;;;;9.18;59.51;98063.84;5027688;28;20021;-88
2021/05/01 06:05:12;;;;;;;34.65;19.27;;;;;;;9.13;59.56;98063.09;5045197;28;20033;-88
2021/05/01 06:07:45;;;;;;;36.13;22.08;;;;;;;9.07;59.96;98071.38;5076629;28;20029;-89
2021/05/01 06:10:12;;;;;;;32.33;18.52;;;;;;;9.00;59.94;98083.81;5033007;28;20029;-89
2021/05/01 06:12:38;;;;;;;34.42;20.77;;;;;;;9.03;60.42;98083.22;5041779;28;20522;-89
2021/05/01 06:15:13;;;;;;;37.25;20.02;;;;;;;9.01;60.49;98090.91;5039377;28;20029;-88
2021/05/01 06:17:39;;;;;;;35.00;20.55;;;;;;;9.00;59.96;98095.56;5036416;28;20057;-88
2021/05/01 06:20:06;;;;;;;39.25;21.95;;;;;;;9.02;60.35;98087.88;5025798;28;20029;-89
2021/05/01 06:22:32;;;;;;;39.50;22.45;;;;;;;9.11;60.44;98092.69;5022597;28;20021;-88
2021/05/01 06:24:59;;;;;;;37.17;22.58;;;;;;;9.11;60.82;98096.25;5022449;28;20441;-88
2021/05/01 06:27:24;;;;;;;45.47;26.90;;;;;;;9.04;60.74;98093.06;5025779;28;20080;-87
2021/05/01 06:29:50;;;;;;;50.15;28.77;;;;;;;9.04;60.99;98085.66;5025068;28;20026;-88
2021/05/01 06:32:17;;;;;;;52.20;30.20;;;;;;;9.01;60.96;98088.19;5058871;28;20026;-88
2021/05/01 06:34:49;;;;;;;52.05;30.42;;;;;;;9.02;61.30;98081.59;5032313;28;20017;-87
2021/05/01 06:37:16;;;;;;;57.83;33.33;;;;;;;9.00;60.93;98083.81;5032728;28;20120;-85
2021/05/01 06:39:46;;;;;;;55.83;33.80;;;;;;;8.98;61.19;98084.09;5036042;28;20430;-85
2021/05/01 06:42:16;;;;;;;;;;;;;;;8.99;61.42;98083.00;5036433;28;20071;-85
2021/05/01 06:44:47;;;;;;;42.45;26.30;;;;;;;8.90;61.08;98079.31;5035771;28;19920;-85
2021/05/01 06:47:16;;;;;;;46.85;28.52;;;;;;;8.81;61.58;98081.06;5032859;28;20021;-84
2021/05/01 06:49:48;;;;;;;51.13;30.02;;;;;;;8.78;62.09;98090.66;5038562;28;20033;-84
2021/05/01 06:52:16;;;;;;;47.08;28.08;;;;;;;8.79;61.98;98087.63;5041228;28;20106;-86
2021/05/01 06:54:44;;;;;;;54.83;31.58;;;;;;;8.84;61.64;98085.94;5047127;28;20025;-86
2021/05/01 06:57:10;;;;;;;66.88;38.58;;;;;;;8.89;62.45;98078.47;5046724;28;20033;-86
2021/05/01 06:59:36;;;;;;;45.35;29.48;;;;;;;8.93;62.32;98070.50;5031182;28;20040;-86
2021/05/01 07:02:02;;;;;;;47.17;29.20;;;;;;;8.91;62.49;98076.25;5043660;28;20055;-86
2021/05/01 07:04:28;;;;;;;46.25;27.85;;;;;;;8.87;62.48;98085.38;5028991;28;20021;-86
2021/05/01 07:06:55;;;;;;;45.65;27.77;;;;;;;8.85;62.52;98095.78;5026713;28;20033;-85
2021/05/01 07:09:21;;;;;;;48.72;27.75;;;;;;;8.78;62.27;98096.13;5034735;28;20140;-85
2021/05/01 07:11:46;;;;;;;48.47;26.10;;;;;;;8.76;62.80;98101.09;5023602;28;20357;-84
2021/05/01 07:14:14;;;;;;;56.45;28.17;;;;;;;8.73;62.79;98099.75;5042539;28;20067;-84
2021/05/01 07:16:41;;;;;;;63.15;30.60;;;;;;;8.76;63.00;98088.22;5045629;28;20049;-84
2021/05/01 07:19:08;;;;;;;70.72;33.38;;;;;;;8.82;62.90;98094.44;5046524;28;20033;-84
2021/05/01 07:21:35;;;;;;;44.17;27.88;;;;;;;8.90;62.82;98096.50;5046258;28;20837;-85
2021/05/01 07:24:00;;;;;;;48.17;28.15;;;;;;;9.01;63.26;98091.72;5046277;28;20029;-84
2021/05/01 07:26:26;;;;;;;50.80;27.27;;;;;;;9.13;62.83;98082.25;5028250;28;20473;-85
2021/05/01 07:28:53;;;;;;;40.78;24.63;;;;;;;9.16;63.52;98084.41;5027130;28;20178;-84
2021/05/01 07:31:27;;;;;;;43.92;26.65;;;;;;;9.22;62.83;98094.16;5036714;28;20100;-84
2021/05/01 07:33:56;;;;;;;42.88;25.85;;;;;;;9.32;62.93;98087.72;5037377;28;20025;-85
2021/05/01 07:36:29;;;;;;;56.60;30.70;;;;;;;9.38;62.90;98076.38;5045963;28;20037;-84
2021/05/01 07:38:58;;;;;;;52.28;28.42;;;;;;;9.48;62.64;98088.28;5046402;28;20756;-84
2021/05/01 07:41:25;;;;;;;48.75;27.38;;;;;;;9.55;62.81;98077.78;5038523;28;20072;-85
2021/05/01 07:43:52;;;;;;;54.47;30.23;;;;;;;9.59;63.31;98080.72;5046265;28;20116;-86
2021/05/01 07:46:20;;;;;;;56.92;33.03;;;;;;;9.53;63.44;98091.78;5027162;28;20025;-85
2021/05/01 07:48:47;;;;;;;61.67;33.42;;;;;;;9.49;62.89;98100.88;5030115;28;20044;-86
2021/05/01 07:51:13;;;;;;;55.47;29.50;;;;;;;9.48;63.72;98105.56;5038483;28;20025;-85
2021/05/01 07:53:38;;;;;;;50.65;27.50;;;;;;;9.50;62.48;98102.50;5036590;28;20025;-85
2021/05/01 07:56:04;;;;;;;50.83;28.42;;;;;;;9.51;63.66;98099.47;5028764;28;20037;-85
2021/05/01 07:58:29;;;;;;;56.97;30.15;;;;;;;9.62;63.24;98100.13;5026111;28;20028;-85
2021/05/01 08:00:55;;;;;;;56.53;31.13;;;;;;;9.74;63.45;98082.41;5029507;28;20082;-84
2021/05/01 08:03:21;;;;;;;53.80;30.25;;;;;;;9.82;63.22;98081.72;5025952;28;20136;-84
2021/05/01 08:05:47;;;;;;;54.40;31.05;;;;;;;9.87;63.26;98089.03;5034023;28;20029;-85
2021/05/01 08:08:13;;;;;;;51.47;28.60;;;;;;;9.86;62.92;98087.41;5034720;28;20042;-84
2021/05/01 08:10:38;;;;;;;52.55;30.33;;;;;;;9.87;63.62;98095.31;5025172;28;20112;-85
2021/05/01 08:13:03;;;;;;;57.38;30.55;;;;;;;9.89;62.37;98104.06;5016815;28;20060;-86
2021/05/01 08:15:30;;;;;;;55.60;31.20;;;;;;;9.83;62.79;98103.34;5019299;28;20021;-86
2021/05/01 08:17:55;;;;;;;56.47;31.00;;;;;;;9.79;63.10;98109.69;5043005;28;20084;-86
2021/05/01 08:20:21;;;;;;;55.53;30.38;;;;;;;9.79;63.23;98116.00;5075678;28;20033;-86
2021/05/01 08:22:47;;;;;;;48.42;27.58;;;;;;;9.82;62.96;98112.66;5027841;28;20998;-87
2021/05/01 08:25:13;;;;;;;50.75;27.63;;;;;;;9.81;62.97;98115.69;5038990;28;20560;-86
2021/05/01 08:27:40;;;;;;;51.97;28.20;;;;;;;9.74;62.63;98118.81;5025320;28;20035;-85
2021/05/01 08:30:08;;;;;;;53.00;30.75;;;;;;;9.67;62.49;98129.34;5032457;28;20029;-85
2021/05/01 08:32:34;;;;;;;54.20;27.23;;;;;;;9.63;62.69;98120.91;5052274;28;20062;-86
2021/05/01 08:34:59;;;;;;;59.97;30.67;;;;;;;9.57;62.48;98126.78;5052372;28;20029;-84
2021/05/01 08:37:25;;;;;;;59.88;32.67;;;;;;;9.57;62.90;98133.06;5052501;28;20036;-85
2021/05/01 08:39:50;;;;;;;55.30;29.98;;;;;;;9.63;62.70;98131.03;5028602;28;20112;-83
2021/05/01 08:42:17;;;;;;;59.33;31.17;;;;;;;9.71;62.45;98132.31;5037735;28;20025;-84
2021/05/01 08:44:42;;;;;;;57.58;31.05;;;;;;;9.75;63.08;98139.63;5032122;28;20026;-83
2021/05/01 08:47:07;;;;;;;62.80;33.65;;;;;;;9.82;63.34;98140.06;5024539;28;20040;-83
2021/05/01 08:49:33;;;;;;;53.47;29.48;;;;;;;9.88;63.10;98146.25;5027704;28;20021;-83
2021/05/01 08:51:59;;;;;;;49.70;25.30;;;;;;;9.83;62.01;98140.84;5029017;28;20059;-83
2021/05/01 08:54:25;;;;;;;62.67;32.22;;;;;;;9.74;62.90;98145.41;5035966;28;20810;-83
2021/05/01 08:56:50;;;;;;;64.35;33.70;;;;;;;9.73;62.28;98152.78;5024449;28;20032;-81
2021/05/01 08:59:16;;;;;;;63.10;30.92;;;;;;;9.66;62.40;98153.19;5027121;28;20466;-83
2021/05/01 09:01:41;;;;;;;74.00;36.42;;;;;;;9.70;63.15;98152.59;5026820;28;20025;-83
2021/05/01 09:04:09;;;;;;;55.47;28.70;;;;;;;9.74;62.80;98148.16;5020454;28;20926;-83
2021/05/01 09:06:35;;;;;;;58.95;30.70;;;;;;;9.65;62.82;98145.25;5040614;28;20029;-84
2021/05/01 09:09:07;;;;;;;57.63;30.13;;;;;;;9.68;62.32;98136.44;5050584;28;20001;-84
2021/05/01 09:11:44;;;;;;;51.97;27.50;;;;;;;9.75;62.52;98141.56;5050291;28;20048;-82
2021/05/01 09:14:23;;;;;;;54.75;29.40;;;;;;;9.70;63.56;98133.41;5050313;28;20021;-82
2021/05/01 09:17:03;;;;;;;61.10;30.98;;;;;;;9.72;63.09;98137.47;5041879;28;20164;-83
2021/05/01 09:19:36;;;;;;;63.65;32.25;;;;;;;9.77;63.27;98137.41;5030066;28;20030;-83
2021/05/01 09:22:07;;;;;;;53.40;28.08;;;;;;;9.87;63.08;98147.38;5023157;28;20053;-84
2021/05/01 09:24:34;;;;;;;52.22;27.25;;;;;;;9.73;62.95;98155.53;5028813;28;20012;-84
2021/05/01 09:27:00;;;;;;;59.17;30.13;;;;;;;9.63;63.69;98151.03;5045593;28;20056;-84
2021/05/01 09:29:33;;;;;;;64.72;33.08;;;;;;;9.59;63.22;98152.75;5049390;28;20032;-83
2021/05/01 09:32:01;;;;;;;62.10;31.20;;;;;;;9.53;63.41;98135.59;5082809;28;20026;-83
2021/05/01 09:34:47;;;;;;;60.50;30.30;;;;;;;9.53;63.91;98135.59;5055851;28;20029;-83
2021/05/01 09:37:14;;;;;;;57.60;30.80;;;;;;;9.59;64.29;98127.28;5049174;28;20009;-84
2021/05/01 09:39:49;;;;;;;47.10;26.20;;;;;;;9.66;63.83;98133.19;5063879;28;20029;-83
2021/05/01 09:42:17;;;;;;;49.75;26.92;;;;;;;9.75;63.35;98123.19;5060514;28;20565;-84
2021/05/01 09:44:44;;;;;;;81.55;39.22;;;;;;;9.89;64.02;98111.47;5058174;28;20029;-84
2021/05/01 09:47:16;;;;;;;52.88;27.88;;;;;;;10.01;64.30;98103.56;5055323;28;20060;-83
2021/05/01 09:49:43;;;;;;;71.43;35.83;;;;;;;10.16;63.50;98107.16;5059408;28;20033;-84
2021/05/01 09:52:11;;;;;;;38.45;22.30;;;;;;;10.19;63.17;98112.03;5057663;28;20029;-83
2021/05/01 09:54:39;;;;;;;44.85;25.88;;;;;;;10.06;62.97;98110.91;5057537;28;20021;-83
2021/05/01 09:57:09;;;;;;;47.95;26.38;;;;;;;10.08;63.08;98101.25;5057470;28;20048;-83
2021/05/01 09:59:35;;;;;;;;;;;;;;;10.19;64.13;98092.84;5050012;28;20060;-84
2021/05/01 10:02:01;;;;;;;47.58;27.80;;;;;;;10.27;63.83;98087.47;5032404;28;19974;-83
2021/05/01 10:04:27;;;;;;;48.38;27.42;;;;;;;10.35;63.75;98087.88;5029638;28;20896;-85
2021/05/01 10:07:04;;;;;;;46.63;25.95;;;;;;;10.41;63.83;98082.03;5025886;28;20029;-85
2021/05/01 10:09:54;;;;;;;60.22;34.85;;;;;;;10.50;63.82;98076.66;5032714;28;20026;-84
2021/05/01 10:12:21;;;;;;;66.95;41.75;;;;;;;10.60;63.44;98083.06;5049368;28;20916;-85
2021/05/01 10:14:51;;;;;;;47.65;30.50;;;;;;;10.56;63.40;98094.63;5038813;28;20037;-85
2021/05/01 10:17:27;;;;;;;42.55;25.65;;;;;;;10.52;63.06;98085.38;5036270;28;20046;-85
2021/05/01 10:19:55;;;;;;;45.17;25.13;;;;;;;10.57;63.38;98076.25;5036263;28;20366;-84
2021/05/01 10:22:29;;;;;;;43.58;25.65;;;;;;;10.52;63.36;98073.59;5038340;28;20120;-84
2021/05/01 10:24:57;;;;;;;46.13;26.25;;;;;;;10.54;63.83;98072.19;5033937;28;20564;-84
2021/05/01 10:27:23;;;;;;;45.10;26.90;;;;;;;10.48;63.01;98084.38;5031126;28;20059;-85
2021/05/01 10:33:30;;;;;;;50.35;29.10;;;;;;;10.43;63.16;98065.28;5044359;28;20041;-84
2021/05/01 10:36:08;;;;;;;50.20;28.52;;;;;;;10.53;63.99;98081.53;5017077;28;20570;-85
2021/05/01 10:38:35;;;;;;;54.33;29.00;;;;;;;10.61;63.74;98090.13;5040413;28;20470;-83
2021/05/01 10:41:03;;;;;;;56.50;34.15;;;;;;;10.64;63.99;98101.31;5047251;28;20018;-85
2021/05/01 10:43:39;;;;;;;52.15;30.23;;;;;;;10.62;62.39;98100.81;5040548;28;20049;-85
2021/05/01 10:46:07;;;;;;;54.17;30.52;;;;;;;10.61;62.73;98085.47;5039230;28;20025;-85
2021/05/01 10:48:54;;;;;;;98.13;46.75;;;;;;;10.65;63.14;98078.28;5031627;28;20071;-84
2021/05/01 10:51:23;;;;;;;110.35;50.90;;;;;;;10.69;63.36;98084.78;5037026;28;20037;-85
2021/05/01 10:54:15;;;;;;;58.30;33.33;;;;;;;10.68;62.91;98087.81;5043294;28;20041;-85
2021/05/01 10:56:52;;;;;;;64.47;35.40;;;;;;;10.79;62.78;98075.50;5037862;28;20036;-85
2021/05/01 10:59:22;;;;;;;60.22;34.92;;;;;;;10.95;62.94;98062.25;5040855;28;20390;-85
2021/05/01 11:01:49;;;;;;;64.43;36.20;;;;;;;11.00;62.96;98067.63;5041247;28;20024;-84
2021/05/01 11:04:26;;;;;;;62.42;34.03;;;;;;;11.09;63.62;98077.88;5039237;28;20440;-83
2021/05/01 11:07:02;;;;;;;62.30;34.55;;;;;;;11.16;63.27;98081.03;5034842;28;20275;-84
2021/05/01 11:09:47;;;;;;;65.25;36.55;;;;;;;11.23;63.39;98099.81;5031690;28;20037;-86
2021/05/01 11:12:18;;;;;;;66.05;36.22;;;;;;;11.25;62.42;98098.38;5051805;28;20453;-86
2021/05/01 11:14:50;;;;;;;64.80;34.53;;;;;;;11.15;61.91;98098.63;5053331;28;20489;-86
2021/05/01 11:17:27;;;;;;;62.15;35.70;;;;;;;11.06;62.44;98082.03;5035198;28;20076;-86
2021/05/01 11:19:58;;;;;;;56.47;31.40;;;;;;;11.22;62.62;98092.69;5038462;28;20032;-87
2021/05/01 11:22:31;;;;;;;57.50;33.17;;;;;;;11.24;62.48;98099.47;5037561;28;20110;-86
2021/05/01 11:24:57;;;;;;;63.63;35.83;;;;;;;11.31;62.46;98107.31;5041726;28;20413;-87
2021/05/01 11:27:24;;;;;;;67.30;35.75;;;;;;;11.38;62.36;98112.38;5035550;28;20025;-87
2021/05/01 11:29:50;;;;;;;58.90;31.80;;;;;;;11.24;61.56;98121.44;5030062;28;20044;-86
2021/05/01 11:32:18;;;;;;;62.10;35.03;;;;;;;11.09;61.61;98130.03;5030165;28;20026;-86